sensor_id;sensor_type;location;lat;lon;timestamp;pressure;altitude;pressure_sealevel;temperature;humidity
38558;BME280;24333;42.626;23.308;2023-08-07T00:23:34;69031.28;;;-148.95;81.55
38558;BME280;24333;42.626;23.308;2023-08-07T00:26:03;69022.97;;;-148.95;81.11
38558;BME280;24333;42.626;23.308;2023-08-07T00:28:32;69033.34;;;-148.95;81.53
38558;BME280;24333;42.626;23.308;2023-08-07T00:31:02;69029.19;;;-148.95;81.04
38558;BME280;24333;42.626;23.308;2023-08-07T00:33:28;69029.19;;;-148.95;80.64
38558;BME280;24333;42.626;23.308;2023-08-07T00:38:28;69033.34;;;-148.95;79.73
38558;BME280;24333;42.626;23.308;2023-08-07T00:40:55;69041.66;;;-148.95;79.88
38558;BME280;24333;42.626;23.308;2023-08-07T00:43:27;69039.56;;;-148.95;79.45
38558;BME280;24333;42.626;23.308;2023-08-07T00:45:53;69045.78;;;-148.95;82.14
38558;BME280;24333;42.626;23.308;2023-08-07T00:48:28;69047.88;;;-148.95;83.10
38558;BME280;24333;42.626;23.308;2023-08-07T00:59:19;69056.16;;;-148.95;91.23
38558;BME280;24333;42.626;23.308;2023-08-07T01:05:52;69066.53;;;-148.95;93.87
38558;BME280;24333;42.626;23.308;2023-08-07T01:08:40;69087.28;;;-148.95;94.80
38558;BME280;24333;42.626;23.308;2023-08-07T01:11:39;69093.50;;;-148.95;96.08
38558;BME280;24333;42.626;23.308;2023-08-07T01:16:57;69105.94;;;-148.95;98.67
38558;BME280;24333;42.626;23.308;2023-08-07T01:19:30;69120.44;;;-148.95;99.78
38558;BME280;24333;42.626;23.308;2023-08-07T01:22:14;69126.69;;;-148.95;99.08
38558;BME280;24333;42.626;23.308;2023-08-07T01:24:43;69137.03;;;-148.95;99.85
38558;BME280;24333;42.626;23.308;2023-08-07T01:33:11;69151.56;;;-148.95;100.00
38558;BME280;24333;42.626;23.308;2023-08-07T02:05:07;69207.56;;;-148.95;100.00
38558;BME280;24333;42.626;23.308;2023-08-07T02:07:35;69215.84;;;-148.95;100.00
38558;BME280;24333;42.626;23.308;2023-08-07T02:10:01;69217.94;;;-148.95;100.00
38558;BME280;24333;42.626;23.308;2023-08-07T02:12:26;69220.00;;;-148.95;100.00
38558;BME280;24333;42.626;23.308;2023-08-07T02:14:52;69222.09;;;-148.95;100.00
38558;BME280;24333;42.626;23.308;2023-08-07T02:17:20;69232.44;;;-148.95;100.00
38558;BME280;24333;42.626;23.308;2023-08-07T02:19:46;69238.69;;;-148.95;100.00
38558;BME280;24333;42.626;23.308;2023-08-07T02:22:12;69234.53;;;-148.95;100.00
38558;BME280;24333;42.626;23.308;2023-08-07T02:24:37;69236.59;;;-148.95;100.00
38558;BME280;24333;42.626;23.308;2023-08-07T02:27:02;69236.59;;;-148.95;100.00
38558;BME280;24333;42.626;23.308;2023-08-07T02:29:28;69236.59;;;-148.95;100.00
38558;BME280;24333;42.626;23.308;2023-08-07T02:31:55;69251.13;;;-148.95;100.00
38558;BME280;24333;42.626;23.308;2023-08-07T02:34:20;69249.03;;;-148.95;100.00
38558;BME280;24333;42.626;23.308;2023-08-07T02:36:45;69251.13;;;-148.95;100.00
38558;BME280;24333;42.626;23.308;2023-08-07T02:39:13;69246.97;;;-148.95;100.00
38558;BME280;24333;42.626;23.308;2023-08-07T02:44:15;69257.34;;;-148.95;100.00
38558;BME280;24333;42.626;23.308;2023-08-07T02:46:46;69255.25;;;-148.95;100.00
38558;BME280;24333;42.626;23.308;2023-08-07T02:49:13;69263.56;;;-148.95;100.00
38558;BME280;24333;42.626;23.308;2023-08-07T02:52:13;69298.81;;;-148.95;100.00
38558;BME280;24333;42.626;23.308;2023-08-07T02:54:40;69288.44;;;-148.95;100.00
38558;BME280;24333;42.626;23.308;2023-08-07T03:04:18;69292.59;;;-148.95;100.00
38558;BME280;24333;42.626;23.308;2023-08-07T03:06:46;69288.44;;;-148.95;100.00
38558;BME280;24333;42.626;23.308;2023-08-07T03:09:12;69284.31;;;-148.95;100.00
38558;BME280;24333;42.626;23.308;2023-08-07T03:11:40;69286.38;;;-148.95;100.00
38558;BME280;24333;42.626;23.308;2023-08-07T03:14:08;69286.38;;;-148.95;100.00
38558;BME280;24333;42.626;23.308;2023-08-07T03:16:34;69288.44;;;-148.95;100.00
38558;BME280;24333;42.626;23.308;2023-08-07T03:19:00;69273.94;;;-148.95;100.00
38558;BME280;24333;42.626;23.308;2023-08-07T03:21:32;69286.38;;;-148.95;100.00
38558;BME280;24333;42.626;23.308;2023-08-07T03:23:59;69286.38;;;-148.95;100.00
38558;BME280;24333;42.626;23.308;2023-08-07T03:26:25;69298.81;;;-148.95;100.00
38558;BME280;24333;42.626;23.308;2023-08-07T03:28:51;69294.69;;;-148.95;100.00
38558;BME280;24333;42.626;23.308;2023-08-07T03:31:37;69288.44;;;-148.95;100.00
38558;BME280;24333;42.626;23.308;2023-08-07T03:34:03;69284.31;;;-148.95;100.00
38558;BME280;24333;42.626;23.308;2023-08-07T03:36:31;69284.31;;;-148.95;100.00
38558;BME280;24333;42.626;23.308;2023-08-07T03:38:59;69298.81;;;-148.95;100.00
38558;BME280;24333;42.626;23.308;2023-08-07T03:44:51;69278.09;;;-148.95;100.00
38558;BME280;24333;42.626;23.308;2023-08-07T03:47:42;69261.50;;;-148.95;100.00
38558;BME280;24333;42.626;23.308;2023-08-07T03:50:13;69255.25;;;-148.95;100.00
38558;BME280;24333;42.626;23.308;2023-08-07T03:52:39;69253.19;;;-148.95;100.00
38558;BME280;24333;42.626;23.308;2023-08-07T04:05:32;69226.22;;;-148.95;100.00
38558;BME280;24333;42.626;23.308;2023-08-07T04:08:27;69230.38;;;-148.95;100.00
38558;BME280;24333;42.626;23.308;2023-08-07T04:11:30;69236.59;;;-148.95;100.00
38558;BME280;24333;42.626;23.308;2023-08-07T04:13:59;69244.91;;;-148.95;100.00
38558;BME280;24333;42.626;23.308;2023-08-07T04:16:39;69242.81;;;-148.95;100.00
38558;BME280;24333;42.626;23.308;2023-08-07T05:30:07;69257.34;;;-148.95;100.00
38558;BME280;24333;42.626;23.308;2023-08-07T05:32:32;69259.41;;;-148.95;100.00
38558;BME280;24333;42.626;23.308;2023-08-07T05:34:58;69259.41;;;-148.95;100.00
38558;BME280;24333;42.626;23.308;2023-08-07T05:37:23;69232.44;;;-148.95;100.00
38558;BME280;24333;42.626;23.308;2023-08-07T05:39:49;69224.16;;;-148.95;100.00
38558;BME280;24333;42.626;23.308;2023-08-07T05:42:14;69220.00;;;-148.95;100.00
38558;BME280;24333;42.626;23.308;2023-08-07T05:44:40;69209.63;;;-148.95;100.00
38558;BME280;24333;42.626;23.308;2023-08-07T05:47:06;69211.72;;;-148.95;100.00
38558;BME280;24333;42.626;23.308;2023-08-07T05:49:31;69217.94;;;-148.95;100.00
38558;BME280;24333;42.626;23.308;2023-08-07T05:51:56;69217.94;;;-148.95;100.00
38558;BME280;24333;42.626;23.308;2023-08-07T05:54:22;69217.94;;;-148.95;100.00
38558;BME280;24333;42.626;23.308;2023-08-07T05:56:47;69215.84;;;-148.95;100.00
38558;BME280;24333;42.626;23.308;2023-08-07T06:01:48;69207.56;;;-148.95;100.00
38558;BME280;24333;42.626;23.308;2023-08-07T06:04:18;69193.03;;;-148.95;100.00
38558;BME280;24333;42.626;23.308;2023-08-07T06:06:43;69193.03;;;-148.95;100.00
38558;BME280;24333;42.626;23.308;2023-08-07T06:09:11;69180.59;;;-148.95;100.00
38558;BME280;24333;42.626;23.308;2023-08-07T06:11:40;69159.84;;;-148.95;100.00
38558;BME280;24333;42.626;23.308;2023-08-07T06:20:44;69126.69;;;-148.95;97.59
38558;BME280;24333;42.626;23.308;2023-08-07T06:23:10;69124.59;;;-148.95;95.35
38558;BME280;24333;42.626;23.308;2023-08-07T06:25:36;69120.44;;;-148.95;97.20
38558;BME280;24333;42.626;23.308;2023-08-07T06:28:03;69108.00;;;-148.95;97.07
38558;BME280;24333;42.626;23.308;2023-08-07T06:51:09;69027.13;;;-148.95;81.19
38558;BME280;24333;42.626;23.308;2023-08-07T06:53:35;69025.06;;;-148.95;77.34
38558;BME280;24333;42.626;23.308;2023-08-07T06:56:00;69008.47;;;-148.95;74.31
38558;BME280;24333;42.626;23.308;2023-08-07T06:58:25;69010.53;;;-148.95;73.23
38558;BME280;24333;42.626;23.308;2023-08-07T07:00:51;69012.59;;;-148.95;71.51
38558;BME280;24333;42.626;23.308;2023-08-07T07:03:16;69010.53;;;-148.95;74.04
38558;BME280;24333;42.626;23.308;2023-08-07T07:05:42;68998.09;;;-148.95;73.05
38558;BME280;24333;42.626;23.308;2023-08-07T07:08:10;68987.72;;;-148.95;70.76
38558;BME280;24333;42.626;23.308;2023-08-07T07:10:35;68971.13;;;-148.95;68.15
38558;BME280;24333;42.626;23.308;2023-08-07T07:13:09;68977.34;;;-148.95;65.99
38558;BME280;24333;42.626;23.308;2023-08-07T07:15:35;68960.75;;;-148.95;68.42
38558;BME280;24333;42.626;23.308;2023-08-07T07:18:01;68944.16;;;-148.95;69.94
38558;BME280;24333;42.626;23.308;2023-08-07T07:20:29;68942.09;;;-148.95;66.84
38558;BME280;24333;42.626;23.308;2023-08-07T07:22:55;68915.13;;;-148.95;66.63
38558;BME280;24333;42.626;23.308;2023-08-07T07:25:20;68906.84;;;-148.95;65.09
38558;BME280;24333;42.626;23.308;2023-08-07T07:27:49;68911.00;;;-148.95;61.61
38558;BME280;24333;42.626;23.308;2023-08-07T07:30:16;68923.44;;;-148.95;63.35
38558;BME280;24333;42.626;23.308;2023-08-07T07:32:41;68913.06;;;-148.95;64.49
38558;BME280;24333;42.626;23.308;2023-08-07T07:35:07;68902.69;;;-148.95;63.69
38558;BME280;24333;42.626;23.308;2023-08-07T07:37:33;68890.25;;;-148.95;65.49
38558;BME280;24333;42.626;23.308;2023-08-07T07:39:59;68890.25;;;-148.95;64.45
38558;BME280;24333;42.626;23.308;2023-08-07T07:42:24;68873.66;;;-148.95;62.64
38558;BME280;24333;42.626;23.308;2023-08-07T07:44:51;68867.44;;;-148.95;62.46
38558;BME280;24333;42.626;23.308;2023-08-07T07:47:16;68871.59;;;-148.95;62.74
38558;BME280;24333;42.626;23.308;2023-08-07T07:49:46;68873.66;;;-148.95;60.63
38558;BME280;24333;42.626;23.308;2023-08-07T07:52:13;68879.88;;;-148.95;60.14
38558;BME280;24333;42.626;23.308;2023-08-07T07:54:38;68865.38;;;-148.95;59.27
38558;BME280;24333;42.626;23.308;2023-08-07T07:57:04;68871.59;;;-148.95;59.62
38558;BME280;24333;42.626;23.308;2023-08-07T07:59:29;68859.16;;;-148.95;61.78
38558;BME280;24333;42.626;23.308;2023-08-07T08:01:55;68850.84;;;-148.95;60.93
38558;BME280;24333;42.626;23.308;2023-08-07T08:04:20;68832.19;;;-148.95;61.11
38558;BME280;24333;42.626;23.308;2023-08-07T08:06:46;68828.03;;;-148.95;58.56
38558;BME280;24333;42.626;23.308;2023-08-07T08:09:13;68828.03;;;-148.95;55.89
38558;BME280;24333;42.626;23.308;2023-08-07T08:11:44;68823.88;;;-148.95;55.65
38558;BME280;24333;42.626;23.308;2023-08-07T08:14:10;68825.97;;;-148.95;56.03
38558;BME280;24333;42.626;23.308;2023-08-07T08:16:35;68828.03;;;-148.95;57.75
38558;BME280;24333;42.626;23.308;2023-08-07T08:19:00;68819.75;;;-148.95;56.31
38558;BME280;24333;42.626;23.308;2023-08-07T08:21:27;68801.06;;;-148.95;55.40
38558;BME280;24333;42.626;23.308;2023-08-07T08:23:52;68803.16;;;-148.95;54.70
38558;BME280;24333;42.626;23.308;2023-08-07T08:26:18;68792.78;;;-148.95;56.10
38558;BME280;24333;42.626;23.308;2023-08-07T08:31:18;68759.59;;;-148.95;53.80
38558;BME280;24333;42.626;23.308;2023-08-07T08:33:51;68757.53;;;-148.95;53.76
38558;BME280;24333;42.626;23.308;2023-08-07T08:49:16;68705.69;;;-148.95;52.45
38558;BME280;24333;42.626;23.308;2023-08-07T08:51:47;68693.25;;;-148.95;50.65
38558;BME280;24333;42.626;23.308;2023-08-07T08:54:18;68709.84;;;-148.95;50.69
38558;BME280;24333;42.626;23.308;2023-08-07T08:56:44;68697.38;;;-148.95;52.63
38558;BME280;24333;42.626;23.308;2023-08-07T09:09:34;68662.13;;;-148.95;47.31
38558;BME280;24333;42.626;23.308;2023-08-07T09:12:00;68680.78;;;-148.95;49.03
38558;BME280;24333;42.626;23.308;2023-08-07T09:14:29;68660.06;;;-148.95;49.23
38558;BME280;24333;42.626;23.308;2023-08-07T09:16:58;68645.53;;;-148.95;49.82
38558;BME280;24333;42.626;23.308;2023-08-07T09:19:25;68618.59;;;-148.95;46.97
38558;BME280;24333;42.626;23.308;2023-08-07T09:21:51;68614.44;;;-148.95;47.77
38558;BME280;24333;42.626;23.308;2023-08-07T09:24:16;68595.78;;;-148.95;47.53
38558;BME280;24333;42.626;23.308;2023-08-07T09:26:53;68585.41;;;-148.95;46.82
38558;BME280;24333;42.626;23.308;2023-08-07T09:33:05;68583.34;;;-148.95;46.90
38558;BME280;24333;42.626;23.308;2023-08-07T09:35:31;68562.59;;;-148.95;45.31
38558;BME280;24333;42.626;23.308;2023-08-07T09:37:58;68541.84;;;-148.95;47.61
38558;BME280;24333;42.626;23.308;2023-08-07T09:40:24;68558.44;;;-148.95;44.20
38558;BME280;24333;42.626;23.308;2023-08-07T09:42:54;68558.44;;;-148.95;47.01
38558;BME280;24333;42.626;23.308;2023-08-07T09:45:25;68529.41;;;-148.95;44.46
38558;BME280;24333;42.626;23.308;2023-08-07T09:48:01;68506.63;;;-148.95;44.81
38558;BME280;24333;42.626;23.308;2023-08-07T09:50:28;68494.16;;;-148.95;42.76
38558;BME280;24333;42.626;23.308;2023-08-07T09:52:54;68469.28;;;-148.95;41.76
38558;BME280;24333;42.626;23.308;2023-08-07T09:55:35;68423.66;;;-148.95;42.76
38558;BME280;24333;42.626;23.308;2023-08-07T09:58:01;68386.34;;;-148.95;43.65
38558;BME280;24333;42.626;23.308;2023-08-07T10:00:27;68334.50;;;-148.95;41.42
38558;BME280;24333;42.626;23.308;2023-08-07T10:02:54;68322.06;;;-148.95;39.62
38558;BME280;24333;42.626;23.308;2023-08-07T10:05:20;68297.19;;;-148.95;40.06
38558;BME280;24333;42.626;23.308;2023-08-07T10:07:45;68284.75;;;-148.95;39.43
38558;BME280;24333;42.626;23.308;2023-08-07T10:10:12;68280.59;;;-148.95;40.83
38558;BME280;24333;42.626;23.308;2023-08-07T10:12:38;68249.50;;;-148.95;40.05
38558;BME280;24333;42.626;23.308;2023-08-07T10:15:04;68222.53;;;-148.95;38.97
38558;BME280;24333;42.626;23.308;2023-08-07T10:17:36;68257.78;;;-148.95;38.27
38558;BME280;24333;42.626;23.308;2023-08-07T10:20:10;68276.44;;;-148.95;39.39
38558;BME280;24333;42.626;23.308;2023-08-07T10:22:42;68268.16;;;-148.95;38.37
38558;BME280;24333;42.626;23.308;2023-08-07T10:25:08;68201.81;;;-148.95;39.67
38558;BME280;24333;42.626;23.308;2023-08-07T10:27:41;68179.00;;;-148.95;37.96
38558;BME280;24333;42.626;23.308;2023-08-07T10:30:12;68191.44;;;-148.95;36.83
38558;BME280;24333;42.626;23.308;2023-08-07T10:32:45;68259.84;;;-148.95;37.91
38558;BME280;24333;42.626;23.308;2023-08-07T10:35:30;68255.72;;;-148.95;38.10
38558;BME280;24333;42.626;23.308;2023-08-07T10:38:10;68241.19;;;-148.95;37.98
38558;BME280;24333;42.626;23.308;2023-08-07T10:40:59;68164.47;;;-148.95;38.64
38558;BME280;24333;42.626;23.308;2023-08-07T10:46:05;68143.75;;;-148.95;36.22
38558;BME280;24333;42.626;23.308;2023-08-07T10:48:44;68139.59;;;-148.95;35.67
38558;BME280;24333;42.626;23.308;2023-08-07T10:53:49;68106.44;;;-148.95;35.88
38558;BME280;24333;42.626;23.308;2023-08-07T10:58:54;68131.31;;;-148.95;36.46
38558;BME280;24333;42.626;23.308;2023-08-07T11:04:11;68060.81;;;-148.95;36.05
38558;BME280;24333;42.626;23.308;2023-08-07T11:06:38;68069.09;;;-148.95;35.52
38558;BME280;24333;42.626;23.308;2023-08-07T11:09:06;68087.75;;;-148.95;35.75
38558;BME280;24333;42.626;23.308;2023-08-07T11:11:45;68004.84;;;-148.95;35.21
38558;BME280;24333;42.626;23.308;2023-08-07T11:14:18;68029.72;;;-148.95;35.30
38558;BME280;24333;42.626;23.308;2023-08-07T11:16:45;68015.19;;;-148.95;35.07
38558;BME280;24333;42.626;23.308;2023-08-07T11:19:13;68008.97;;;-148.95;34.96
38558;BME280;24333;42.626;23.308;2023-08-07T11:21:40;67907.38;;;-148.95;34.83
38558;BME280;24333;42.626;23.308;2023-08-07T11:24:07;67820.31;;;-148.95;33.98
38558;BME280;24333;42.626;23.308;2023-08-07T11:26:33;67733.25;;;-148.95;33.75
38558;BME280;24333;42.626;23.308;2023-08-07T11:28:58;67836.91;;;-148.95;32.47
38558;BME280;24333;42.626;23.308;2023-08-07T11:31:24;67857.63;;;-148.95;33.20
38558;BME280;24333;42.626;23.308;2023-08-07T11:33:51;67822.38;;;-148.95;35.17
38558;BME280;24333;42.626;23.308;2023-08-07T11:36:17;67814.09;;;-148.95;33.08
38558;BME280;24333;42.626;23.308;2023-08-07T11:38:43;67899.09;;;-148.95;32.96
38558;BME280;24333;42.626;23.308;2023-08-07T11:41:14;67979.94;;;-148.95;34.57
38558;BME280;24333;42.626;23.308;2023-08-07T11:43:41;68040.06;;;-148.95;36.45
38558;BME280;24333;42.626;23.308;2023-08-07T11:46:09;68073.25;;;-148.95;35.72
38558;BME280;24333;42.626;23.308;2023-08-07T11:48:37;68137.53;;;-148.95;35.80
38558;BME280;24333;42.626;23.308;2023-08-07T11:51:07;68152.03;;;-148.95;36.50
38558;BME280;24333;42.626;23.308;2023-08-07T11:53:36;68141.66;;;-148.95;36.26
38558;BME280;24333;42.626;23.308;2023-08-07T11:56:10;68152.03;;;-148.95;37.18
38558;BME280;24333;42.626;23.308;2023-08-07T11:58:48;68172.78;;;-148.95;36.83
38558;BME280;24333;42.626;23.308;2023-08-07T12:01:19;68201.81;;;-148.95;36.95
38558;BME280;24333;42.626;23.308;2023-08-07T12:03:56;68164.47;;;-148.95;37.75
38558;BME280;24333;42.626;23.308;2023-08-07T12:06:24;68166.56;;;-148.95;36.63
38558;BME280;24333;42.626;23.308;2023-08-07T12:08:52;68135.47;;;-148.95;38.07
38558;BME280;24333;42.626;23.308;2023-08-07T12:11:19;68094.00;;;-148.95;37.54
38558;BME280;24333;42.626;23.308;2023-08-07T12:13:47;68073.25;;;-148.95;36.52
38558;BME280;24333;42.626;23.308;2023-08-07T12:16:14;68058.75;;;-148.95;36.00
38558;BME280;24333;42.626;23.308;2023-08-07T12:18:44;68040.06;;;-148.95;36.58
38558;BME280;24333;42.626;23.308;2023-08-07T12:21:12;68000.69;;;-148.95;35.96
38558;BME280;24333;42.626;23.308;2023-08-07T12:23:38;67979.94;;;-148.95;36.04
38558;BME280;24333;42.626;23.308;2023-08-07T12:26:04;67986.19;;;-148.95;35.74
38558;BME280;24333;42.626;23.308;2023-08-07T12:28:32;68006.91;;;-148.95;35.82
38558;BME280;24333;42.626;23.308;2023-08-07T12:30:58;68017.28;;;-148.95;36.93
38558;BME280;24333;42.626;23.308;2023-08-07T12:33:23;68023.50;;;-148.95;36.54
38558;BME280;24333;42.626;23.308;2023-08-07T12:35:49;68040.06;;;-148.95;35.45
38558;BME280;24333;42.626;23.308;2023-08-07T12:38:14;68069.09;;;-148.95;36.10
38558;BME280;24333;42.626;23.308;2023-08-07T12:40:40;68069.09;;;-148.95;35.95
38558;BME280;24333;42.626;23.308;2023-08-07T12:43:06;68052.53;;;-148.95;36.53
38558;BME280;24333;42.626;23.308;2023-08-07T12:45:32;68100.22;;;-148.95;36.48
38558;BME280;24333;42.626;23.308;2023-08-07T12:47:58;68098.13;;;-148.95;37.10
38558;BME280;24333;42.626;23.308;2023-08-07T12:50:24;68133.38;;;-148.95;37.21
38558;BME280;24333;42.626;23.308;2023-08-07T12:52:50;68181.06;;;-148.95;37.73
38558;BME280;24333;42.626;23.308;2023-08-07T12:55:15;68197.66;;;-148.95;37.91
38558;BME280;24333;42.626;23.308;2023-08-07T12:57:42;68191.44;;;-148.95;38.67
38558;BME280;24333;42.626;23.308;2023-08-07T13:00:09;68189.38;;;-148.95;38.33
38558;BME280;24333;42.626;23.308;2023-08-07T13:02:39;68228.75;;;-148.95;39.21
38558;BME280;24333;42.626;23.308;2023-08-07T13:05:14;68270.22;;;-148.95;39.66
38558;BME280;24333;42.626;23.308;2023-08-07T13:07:42;68272.31;;;-148.95;40.32
38558;BME280;24333;42.626;23.308;2023-08-07T13:10:09;68305.47;;;-148.95;41.17
38558;BME280;24333;42.626;23.308;2023-08-07T13:12:36;68303.41;;;-148.95;41.54
38558;BME280;24333;42.626;23.308;2023-08-07T13:15:09;68284.75;;;-148.95;41.30
38558;BME280;24333;42.626;23.308;2023-08-07T13:17:35;68249.50;;;-148.95;40.38
38558;BME280;24333;42.626;23.308;2023-08-07T13:20:02;68247.41;;;-148.95;40.94
38558;BME280;24333;42.626;23.308;2023-08-07T13:22:36;68247.41;;;-148.95;40.40
38558;BME280;24333;42.626;23.308;2023-08-07T13:25:01;68214.25;;;-148.95;40.86
38558;BME280;24333;42.626;23.308;2023-08-07T13:27:29;68228.75;;;-148.95;40.55
38558;BME280;24333;42.626;23.308;2023-08-07T13:29:55;68222.53;;;-148.95;39.90
38558;BME280;24333;42.626;23.308;2023-08-07T13:32:20;68261.94;;;-148.95;40.64
38558;BME280;24333;42.626;23.308;2023-08-07T13:34:45;68286.81;;;-148.95;40.95
38558;BME280;24333;42.626;23.308;2023-08-07T13:37:11;68336.56;;;-148.95;41.47
38558;BME280;24333;42.626;23.308;2023-08-07T13:40:05;68367.69;;;-148.95;43.44
38558;BME280;24333;42.626;23.308;2023-08-07T13:42:33;68367.69;;;-148.95;43.62
38558;BME280;24333;42.626;23.308;2023-08-07T13:48:08;68375.97;;;-148.95;45.03
38558;BME280;24333;42.626;23.308;2023-08-07T13:53:56;68409.16;;;-148.95;45.10
38558;BME280;24333;42.626;23.308;2023-08-07T13:56:22;68425.75;;;-148.95;45.94
38558;BME280;24333;42.626;23.308;2023-08-07T13:58:47;68442.31;;;-148.95;46.09
38558;BME280;24333;42.626;23.308;2023-08-07T14:01:31;68458.91;;;-148.95;46.88
38558;BME280;24333;42.626;23.308;2023-08-07T14:04:09;68492.09;;;-148.95;46.57
38558;BME280;24333;42.626;23.308;2023-08-07T14:06:34;68487.94;;;-148.95;46.68
38558;BME280;24333;42.626;23.308;2023-08-07T14:08:59;68487.94;;;-148.95;46.62
38558;BME280;24333;42.626;23.308;2023-08-07T14:11:31;68500.38;;;-148.95;47.40
38558;BME280;24333;42.626;23.308;2023-08-07T14:13:57;68500.38;;;-148.95;47.21
38558;BME280;24333;42.626;23.308;2023-08-07T14:16:23;68512.84;;;-148.95;48.08
38558;BME280;24333;42.626;23.308;2023-08-07T14:18:48;68492.09;;;-148.95;48.42
38558;BME280;24333;42.626;23.308;2023-08-07T14:21:14;68465.13;;;-148.95;49.60
38558;BME280;24333;42.626;23.308;2023-08-07T14:23:39;68463.06;;;-148.95;48.06
38558;BME280;24333;42.626;23.308;2023-08-07T14:26:07;68446.47;;;-148.95;46.07
38558;BME280;24333;42.626;23.308;2023-08-07T14:28:33;68469.28;;;-148.95;45.65
38558;BME280;24333;42.626;23.308;2023-08-07T14:30:59;68479.66;;;-148.95;44.77
38558;BME280;24333;42.626;23.308;2023-08-07T14:33:26;68516.97;;;-148.95;45.96
38558;BME280;24333;42.626;23.308;2023-08-07T14:35:52;68531.50;;;-148.95;46.24
38558;BME280;24333;42.626;23.308;2023-08-07T14:38:21;68535.63;;;-148.95;47.18
38558;BME280;24333;42.626;23.308;2023-08-07T14:40:46;68548.09;;;-148.95;47.22
38558;BME280;24333;42.626;23.308;2023-08-07T14:43:13;68554.31;;;-148.95;47.33
38558;BME280;24333;42.626;23.308;2023-08-07T14:45:43;68560.53;;;-148.95;48.46
38558;BME280;24333;42.626;23.308;2023-08-07T14:51:30;68583.34;;;-148.95;49.70
38558;BME280;24333;42.626;23.308;2023-08-07T14:53:55;68579.19;;;-148.95;50.12
38558;BME280;24333;42.626;23.308;2023-08-07T14:56:21;68577.13;;;-148.95;51.06
38558;BME280;24333;42.626;23.308;2023-08-07T14:58:47;68581.25;;;-148.95;51.88
38558;BME280;24333;42.626;23.308;2023-08-07T15:01:12;68579.19;;;-148.95;51.68
38558;BME280;24333;42.626;23.308;2023-08-07T15:03:38;68577.13;;;-148.95;49.72
38558;BME280;24333;42.626;23.308;2023-08-07T15:06:04;68589.56;;;-148.95;50.53
38558;BME280;24333;42.626;23.308;2023-08-07T15:08:30;68595.78;;;-148.95;50.58
38558;BME280;24333;42.626;23.308;2023-08-07T15:10:55;68599.91;;;-148.95;51.03
38558;BME280;24333;42.626;23.308;2023-08-07T15:13:21;68608.22;;;-148.95;51.91
38558;BME280;24333;42.626;23.308;2023-08-07T15:15:47;68599.91;;;-148.95;52.76
38558;BME280;24333;42.626;23.308;2023-08-07T15:18:13;68628.97;;;-148.95;53.54
38558;BME280;24333;42.626;23.308;2023-08-07T15:20:38;68647.63;;;-148.95;54.57
38558;BME280;24333;42.626;23.308;2023-08-07T15:23:09;68672.50;;;-148.95;56.12
38558;BME280;24333;42.626;23.308;2023-08-07T15:25:36;68670.44;;;-148.95;57.24
38558;BME280;24333;42.626;23.308;2023-08-07T15:28:02;68662.13;;;-148.95;56.60
38558;BME280;24333;42.626;23.308;2023-08-07T15:30:29;68670.44;;;-148.95;56.02
38558;BME280;24333;42.626;23.308;2023-08-07T15:38:06;68649.69;;;-148.95;57.06
38558;BME280;24333;42.626;23.308;2023-08-07T15:40:32;68649.69;;;-148.95;56.74
38558;BME280;24333;42.626;23.308;2023-08-07T15:43:00;68653.84;;;-148.95;56.71
38558;BME280;24333;42.626;23.308;2023-08-07T15:45:26;68666.28;;;-148.95;56.91
38558;BME280;24333;42.626;23.308;2023-08-07T15:51:01;68695.31;;;-148.95;58.12
38558;BME280;24333;42.626;23.308;2023-08-07T15:58:37;68707.75;;;-148.95;59.76
38558;BME280;24333;42.626;23.308;2023-08-07T16:01:02;68703.59;;;-148.95;59.94
38558;BME280;24333;42.626;23.308;2023-08-07T16:03:28;68720.19;;;-148.95;60.27
38558;BME280;24333;42.626;23.308;2023-08-07T16:05:53;68709.84;;;-148.95;61.00
38558;BME280;24333;42.626;23.308;2023-08-07T16:08:19;68720.19;;;-148.95;61.43
38558;BME280;24333;42.626;23.308;2023-08-07T16:10:44;68722.28;;;-148.95;62.95
38558;BME280;24333;42.626;23.308;2023-08-07T16:13:09;68751.31;;;-148.95;63.95
38558;BME280;24333;42.626;23.308;2023-08-07T16:15:35;68738.88;;;-148.95;63.80
38558;BME280;24333;42.626;23.308;2023-08-07T16:18:01;68757.53;;;-148.95;63.39
38558;BME280;24333;42.626;23.308;2023-08-07T16:20:29;68767.91;;;-148.95;65.32
38558;BME280;24333;42.626;23.308;2023-08-07T16:22:55;68784.47;;;-148.95;66.84
38558;BME280;24333;42.626;23.308;2023-08-07T16:25:21;68790.72;;;-148.95;68.61
38558;BME280;24333;42.626;23.308;2023-08-07T16:27:46;68792.78;;;-148.95;67.98
38558;BME280;24333;42.626;23.308;2023-08-07T16:30:14;68794.84;;;-148.95;68.40
38558;BME280;24333;42.626;23.308;2023-08-07T16:32:39;68805.22;;;-148.95;68.20
38558;BME280;24333;42.626;23.308;2023-08-07T16:35:06;68815.59;;;-148.95;67.26
38558;BME280;24333;42.626;23.308;2023-08-07T16:37:32;68825.97;;;-148.95;68.52
38558;BME280;24333;42.626;23.308;2023-08-07T16:39:58;68844.63;;;-148.95;69.58
38558;BME280;24333;42.626;23.308;2023-08-07T16:42:23;68842.56;;;-148.95;70.02
38558;BME280;24333;42.626;23.308;2023-08-07T16:44:49;68842.56;;;-148.95;70.54
38558;BME280;24333;42.626;23.308;2023-08-07T16:47:16;68840.47;;;-148.95;72.55
38558;BME280;24333;42.626;23.308;2023-08-07T16:49:41;68838.41;;;-148.95;72.23
38558;BME280;24333;42.626;23.308;2023-08-07T16:52:27;68842.56;;;-148.95;70.82
38558;BME280;24333;42.626;23.308;2023-08-07T16:54:52;68842.56;;;-148.95;70.37
38558;BME280;24333;42.626;23.308;2023-08-07T16:57:20;68848.78;;;-148.95;71.26